sensor_id;sensor_type;location;lat;lon;timestamp;pressure;altitude;pressure_sealevel;temperature;humidity
21290;BME280;10804;48.988;2.408;2023-05-09T00:01:12;101067.31;;;19.08;63.11
21290;BME280;10804;48.988;2.408;2023-05-09T00:03:40;101066.56;;;19.06;63.11
21290;BME280;10804;48.988;2.408;2023-05-09T00:06:08;101056.13;;;19.03;62.98
21290;BME280;10804;48.988;2.408;2023-05-09T00:08:36;101057.94;;;19.03;63.05
21290;BME280;10804;48.988;2.408;2023-05-09T00:11:04;101050.00;;;19.03;63.08
21290;BME280;10804;48.988;2.408;2023-05-09T00:13:32;101045.75;;;19.00;63.00
21290;BME280;10804;48.988;2.408;2023-05-09T00:16:00;101038.75;;;18.99;63.15
21290;BME280;10804;48.988;2.408;2023-05-09T00:18:28;101032.78;;;18.96;62.94
21290;BME280;10804;48.988;2.408;2023-05-09T00:20:59;101039.75;;;18.97;62.96
21290;BME280;10804;48.988;2.408;2023-05-09T00:23:28;101028.44;;;18.95;63.11
21290;BME280;10804;48.988;2.408;2023-05-09T00:25:55;101028.44;;;18.95;63.12
21290;BME280;10804;48.988;2.408;2023-05-09T00:28:22;101017.94;;;18.93;63.13
21290;BME280;10804;48.988;2.408;2023-05-09T00:30:51;101023.22;;;18.93;63.09
21290;BME280;10804;48.988;2.408;2023-05-09T00:33:18;101013.66;;;18.91;63.13
21290;BME280;10804;48.988;2.408;2023-05-09T00:35:46;101014.59;;;18.90;63.10
21290;BME280;10804;48.988;2.408;2023-05-09T00:38:13;101010.25;;;18.89;63.02
21290;BME280;10804;48.988;2.408;2023-05-09T00:40:40;101018.25;;;18.87;63.06
21290;BME280;10804;48.988;2.408;2023-05-09T00:43:08;101012.13;;;18.87;63.09
21290;BME280;10804;48.988;2.408;2023-05-09T00:45:36;101013.09;;;18.86;62.93
21290;BME280;10804;48.988;2.408;2023-05-09T00:48:05;101004.28;;;18.85;62.95
21290;BME280;10804;48.988;2.408;2023-05-09T00:50:33;101013.09;;;18.86;63.22
21290;BME280;10804;48.988;2.408;2023-05-09T00:53:00;101007.00;;;18.84;63.22
21290;BME280;10804;48.988;2.408;2023-05-09T00:55:29;101010.59;;;18.83;63.17
21290;BME280;10804;48.988;2.408;2023-05-09T00:57:56;100993.91;;;18.82;63.11
21290;BME280;10804;48.988;2.408;2023-05-09T01:00:23;100990.47;;;18.80;63.17
21290;BME280;10804;48.988;2.408;2023-05-09T01:02:53;100990.47;;;18.80;63.05
21290;BME280;10804;48.988;2.408;2023-05-09T01:05:24;100984.34;;;18.80;63.28
21290;BME280;10804;48.988;2.408;2023-05-09T01:08:01;100982.66;;;18.79;63.12
21290;BME280;10804;48.988;2.408;2023-05-09T01:10:34;100980.06;;;18.77;63.12
21290;BME280;10804;48.988;2.408;2023-05-09T01:13:11;100971.28;;;18.77;63.14
21290;BME280;10804;48.988;2.408;2023-05-09T01:15:45;100977.50;;;18.76;63.05
21290;BME280;10804;48.988;2.408;2023-05-09T01:18:18;100982.78;;;18.76;63.04
21290;BME280;10804;48.988;2.408;2023-05-09T01:20:54;100969.69;;;18.74;63.16
21290;BME280;10804;48.988;2.408;2023-05-09T01:23:41;100967.94;;;18.73;63.13
21290;BME280;10804;48.988;2.408;2023-05-09T01:26:18;100966.34;;;18.71;63.16
21290;BME280;10804;48.988;2.408;2023-05-09T01:29:07;100959.34;;;18.70;63.06
21290;BME280;10804;48.988;2.408;2023-05-09T01:31:36;100949.72;;;18.69;63.15
21290;BME280;10804;48.988;2.408;2023-05-09T01:34:04;100950.75;;;18.66;63.20
21290;BME280;10804;48.988;2.408;2023-05-09T01:36:35;100942.84;;;18.66;63.20
21290;BME280;10804;48.988;2.408;2023-05-09T01:39:04;100941.97;;;18.66;63.05
21290;BME280;10804;48.988;2.408;2023-05-09T01:41:35;100936.94;;;18.61;63.14
21290;BME280;10804;48.988;2.408;2023-05-09T01:44:05;100936.88;;;18.63;63.20
21290;BME280;10804;48.988;2.408;2023-05-09T01:46:36;100939.50;;;18.63;63.02
21290;BME280;10804;48.988;2.408;2023-05-09T01:49:04;100939.59;;;18.61;63.32
21290;BME280;10804;48.988;2.408;2023-05-09T01:51:35;100930.78;;;18.61;63.28
21290;BME280;10804;48.988;2.408;2023-05-09T01:54:05;100926.53;;;18.58;63.26
21290;BME280;10804;48.988;2.408;2023-05-09T01:56:33;100922.09;;;18.59;63.14
21290;BME280;10804;48.988;2.408;2023-05-09T01:59:04;100928.31;;;18.58;63.19
21290;BME280;10804;48.988;2.408;2023-05-09T02:01:34;100925.69;;;18.58;63.23
21290;BME280;10804;48.988;2.408;2023-05-09T02:04:03;100928.41;;;18.56;63.25
21290;BME280;10804;48.988;2.408;2023-05-09T02:06:31;100924.06;;;18.55;63.21
21290;BME280;10804;48.988;2.408;2023-05-09T02:09:00;100920.59;;;18.55;63.28
21290;BME280;10804;48.988;2.408;2023-05-09T02:11:28;100922.38;;;18.54;63.30
21290;BME280;10804;48.988;2.408;2023-05-09T02:13:55;100917.16;;;18.53;63.18
21290;BME280;10804;48.988;2.408;2023-05-09T02:16:24;100917.16;;;18.53;63.30
21290;BME280;10804;48.988;2.408;2023-05-09T02:18:52;100905.06;;;18.49;63.33
21290;BME280;10804;48.988;2.408;2023-05-09T02:21:20;100914.69;;;18.50;63.17
21290;BME280;10804;48.988;2.408;2023-05-09T02:23:47;100913.75;;;18.51;63.33
21290;BME280;10804;48.988;2.408;2023-05-09T02:26:14;100913.00;;;18.49;63.27
21290;BME280;10804;48.988;2.408;2023-05-09T02:28:43;100912.06;;;18.50;63.33
21290;BME280;10804;48.988;2.408;2023-05-09T02:31:12;100918.28;;;18.49;63.34
21290;BME280;10804;48.988;2.408;2023-05-09T02:33:40;100919.22;;;18.48;63.21
21290;BME280;10804;48.988;2.408;2023-05-09T02:36:11;100913.06;;;18.47;63.30
21290;BME280;10804;48.988;2.408;2023-05-09T02:38:40;100907.84;;;18.46;63.29
21290;BME280;10804;48.988;2.408;2023-05-09T02:41:11;100914.94;;;18.45;63.24
21290;BME280;10804;48.988;2.408;2023-05-09T02:43:39;100907.84;;;18.46;63.19
21290;BME280;10804;48.988;2.408;2023-05-09T02:46:06;100904.47;;;18.44;63.25
21290;BME280;10804;48.988;2.408;2023-05-09T02:48:34;100904.38;;;18.45;63.32
21290;BME280;10804;48.988;2.408;2023-05-09T02:51:01;100901.81;;;18.44;63.17
21290;BME280;10804;48.988;2.408;2023-05-09T02:53:30;100902.69;;;18.44;63.22
21290;BME280;10804;48.988;2.408;2023-05-09T02:55:58;100896.53;;;18.44;63.38
21290;BME280;10804;48.988;2.408;2023-05-09T02:58:25;100895.78;;;18.42;63.24
21290;BME280;10804;48.988;2.408;2023-05-09T03:00:52;100892.25;;;18.41;63.31
21290;BME280;10804;48.988;2.408;2023-05-09T03:03:21;100891.44;;;18.41;63.31
21290;BME280;10804;48.988;2.408;2023-05-09T03:05:50;100893.22;;;18.40;63.36
21290;BME280;10804;48.988;2.408;2023-05-09T03:08:18;100898.41;;;18.42;63.40
21290;BME280;10804;48.988;2.408;2023-05-09T03:10:46;100894.06;;;18.41;63.41
21290;BME280;10804;48.988;2.408;2023-05-09T03:13:14;100886.22;;;18.39;63.28
21290;BME280;10804;48.988;2.408;2023-05-09T03:15:41;100888.00;;;18.39;63.33
21290;BME280;10804;48.988;2.408;2023-05-09T03:18:10;100888.94;;;18.38;63.43
21290;BME280;10804;48.988;2.408;2023-05-09T03:20:38;100883.66;;;18.38;63.29
21290;BME280;10804;48.988;2.408;2023-05-09T03:23:05;100892.53;;;18.37;63.38
21290;BME280;10804;48.988;2.408;2023-05-09T03:25:33;100881.97;;;18.37;63.37
21290;BME280;10804;48.988;2.408;2023-05-09T03:28:01;100875.84;;;18.36;63.36
21290;BME280;10804;48.988;2.408;2023-05-09T03:30:29;100880.25;;;18.36;63.41
21290;BME280;10804;48.988;2.408;2023-05-09T03:32:57;100880.25;;;18.36;63.24
21290;BME280;10804;48.988;2.408;2023-05-09T03:35:24;100875.06;;;18.34;63.31
21290;BME280;10804;48.988;2.408;2023-05-09T03:37:52;100878.56;;;18.35;63.45
21290;BME280;10804;48.988;2.408;2023-05-09T03:40:20;100889.13;;;18.35;63.39
21290;BME280;10804;48.988;2.408;2023-05-09T03:42:53;100877.78;;;18.33;63.35
21290;BME280;10804;48.988;2.408;2023-05-09T03:45:22;100868.06;;;18.33;63.37
21290;BME280;10804;48.988;2.408;2023-05-09T03:47:50;100869.00;;;18.32;63.32
21290;BME280;10804;48.988;2.408;2023-05-09T03:50:18;100876.06;;;18.32;63.22
21290;BME280;10804;48.988;2.408;2023-05-09T03:52:45;100869.09;;;18.31;63.32
21290;BME280;10804;48.988;2.408;2023-05-09T03:55:15;100867.38;;;18.30;63.37
21290;BME280;10804;48.988;2.408;2023-05-09T03:57:43;100862.09;;;18.30;63.52
21290;BME280;10804;48.988;2.408;2023-05-09T04:00:11;100857.72;;;18.29;63.47
21290;BME280;10804;48.988;2.408;2023-05-09T04:02:50;100848.09;;;18.28;63.50
21290;BME280;10804;48.988;2.408;2023-05-09T04:05:27;100846.41;;;18.27;63.29
21290;BME280;10804;48.988;2.408;2023-05-09T04:07:55;100852.63;;;18.26;63.48
21290;BME280;10804;48.988;2.408;2023-05-09T04:10:23;100848.28;;;18.25;63.51
21290;BME280;10804;48.988;2.408;2023-05-09T04:12:51;100848.38;;;18.23;63.40
21290;BME280;10804;48.988;2.408;2023-05-09T04:15:18;100848.44;;;18.22;63.25
21290;BME280;10804;48.988;2.408;2023-05-09T04:17:46;100852.88;;;18.21;63.38
21290;BME280;10804;48.988;2.408;2023-05-09T04:20:14;100856.44;;;18.20;63.61
21290;BME280;10804;48.988;2.408;2023-05-09T04:22:42;100849.56;;;18.18;63.37
21290;BME280;10804;48.988;2.408;2023-05-09T04:25:11;100849.63;;;18.16;63.66
21290;BME280;10804;48.988;2.408;2023-05-09T04:27:40;100854.06;;;18.16;63.42
21290;BME280;10804;48.988;2.408;2023-05-09T04:30:08;100848.00;;;18.14;63.65
21290;BME280;10804;48.988;2.408;2023-05-09T04:32:36;100847.25;;;18.12;63.54
21290;BME280;10804;48.988;2.408;2023-05-09T04:35:05;100841.09;;;18.11;63.49
21290;BME280;10804;48.988;2.408;2023-05-09T04:37:39;100837.69;;;18.09;63.72
21290;BME280;10804;48.988;2.408;2023-05-09T04:40:08;100834.31;;;18.07;63.65
21290;BME280;10804;48.988;2.408;2023-05-09T04:42:43;100837.00;;;18.06;63.68
21290;BME280;10804;48.988;2.408;2023-05-09T04:45:10;100834.38;;;18.06;63.76
21290;BME280;10804;48.988;2.408;2023-05-09T04:47:38;100820.50;;;18.02;63.79
21290;BME280;10804;48.988;2.408;2023-05-09T04:50:06;100814.53;;;17.99;63.70
21290;BME280;10804;48.988;2.408;2023-05-09T04:52:34;100824.16;;;18.00;63.76
21290;BME280;10804;48.988;2.408;2023-05-09T04:55:03;100826.97;;;17.97;63.93
21290;BME280;10804;48.988;2.408;2023-05-09T04:57:36;100825.25;;;17.96;63.93
21290;BME280;10804;48.988;2.408;2023-05-09T05:00:05;100826.19;;;17.95;63.92
21290;BME280;10804;48.988;2.408;2023-05-09T05:02:36;100820.94;;;17.95;63.77
21290;BME280;10804;48.988;2.408;2023-05-09T05:05:05;100816.72;;;17.91;63.91
21290;BME280;10804;48.988;2.408;2023-05-09T05:07:36;100811.47;;;17.91;63.94
21290;BME280;10804;48.988;2.408;2023-05-09T05:10:07;100812.47;;;17.88;64.05
21290;BME280;10804;48.988;2.408;2023-05-09T05:12:36;100812.56;;;17.87;64.02
21290;BME280;10804;48.988;2.408;2023-05-09T05:15:07;100807.38;;;17.85;63.89
21290;BME280;10804;48.988;2.408;2023-05-09T05:17:35;100811.78;;;17.85;63.93
21290;BME280;10804;48.988;2.408;2023-05-09T05:20:05;100795.19;;;17.83;63.99
21290;BME280;10804;48.988;2.408;2023-05-09T05:22:36;100803.19;;;17.81;64.02
21290;BME280;10804;48.988;2.408;2023-05-09T05:25:06;100798.94;;;17.79;64.05
21290;BME280;10804;48.988;2.408;2023-05-09T05:27:34;100798.09;;;17.78;64.00
21290;BME280;10804;48.988;2.408;2023-05-09T05:30:02;100793.75;;;17.77;64.14
21290;BME280;10804;48.988;2.408;2023-05-09T05:32:30;100791.34;;;17.73;64.13
21290;BME280;10804;48.988;2.408;2023-05-09T05:34:57;100790.41;;;17.74;64.28
21290;BME280;10804;48.988;2.408;2023-05-09T05:37:28;100792.28;;;17.72;64.29
21290;BME280;10804;48.988;2.408;2023-05-09T05:39:55;100779.25;;;17.69;64.33
21290;BME280;10804;48.988;2.408;2023-05-09T05:42:25;100789.81;;;17.69;64.30
21290;BME280;10804;48.988;2.408;2023-05-09T05:44:52;100784.69;;;17.66;64.29
21290;BME280;10804;48.988;2.408;2023-05-09T05:47:20;100783.00;;;17.65;64.42
21290;BME280;10804;48.988;2.408;2023-05-09T05:49:47;100776.03;;;17.64;64.36
21290;BME280;10804;48.988;2.408;2023-05-09T05:52:14;100781.38;;;17.62;64.33
21290;BME280;10804;48.988;2.408;2023-05-09T05:54:43;100780.50;;;17.62;64.35
21290;BME280;10804;48.988;2.408;2023-05-09T05:57:11;100774.47;;;17.60;64.41
21290;BME280;10804;48.988;2.408;2023-05-09T05:59:39;100770.13;;;17.59;64.48
21290;BME280;10804;48.988;2.408;2023-05-09T06:02:07;100769.38;;;17.57;64.40
21290;BME280;10804;48.988;2.408;2023-05-09T06:04:34;100765.03;;;17.56;64.59
21290;BME280;10804;48.988;2.408;2023-05-09T06:07:02;100764.25;;;17.54;64.50
21290;BME280;10804;48.988;2.408;2023-05-09T06:09:29;100758.13;;;17.53;64.51
21290;BME280;10804;48.988;2.408;2023-05-09T06:11:56;100756.44;;;17.52;64.64
21290;BME280;10804;48.988;2.408;2023-05-09T06:14:24;100759.16;;;17.51;64.69
21290;BME280;10804;48.988;2.408;2023-05-09T06:16:53;100760.09;;;17.50;64.51
21290;BME280;10804;48.988;2.408;2023-05-09T06:19:21;100761.03;;;17.49;64.70
21290;BME280;10804;48.988;2.408;2023-05-09T06:21:48;100752.31;;;17.47;64.50
21290;BME280;10804;48.988;2.408;2023-05-09T06:24:15;100755.81;;;17.47;64.67
21290;BME280;10804;48.988;2.408;2023-05-09T06:26:43;100752.31;;;17.47;64.69
21290;BME280;10804;48.988;2.408;2023-05-09T06:29:10;100745.44;;;17.44;64.52
21290;BME280;10804;48.988;2.408;2023-05-09T06:31:39;100745.53;;;17.43;64.67
21290;BME280;10804;48.988;2.408;2023-05-09T06:34:08;100740.25;;;17.43;64.64
21290;BME280;10804;48.988;2.408;2023-05-09T06:36:35;100741.19;;;17.42;64.63
21290;BME280;10804;48.988;2.408;2023-05-09T06:39:03;100732.41;;;17.41;64.73
21290;BME280;10804;48.988;2.408;2023-05-09T06:41:31;100729.84;;;17.40;64.65
21290;BME280;10804;48.988;2.408;2023-05-09T06:43:58;100724.56;;;17.40;64.70
21290;BME280;10804;48.988;2.408;2023-05-09T06:46:27;100723.81;;;17.38;64.83
21290;BME280;10804;48.988;2.408;2023-05-09T06:48:54;100725.66;;;17.36;64.70
21290;BME280;10804;48.988;2.408;2023-05-09T06:51:23;100715.19;;;17.34;64.67
21290;BME280;10804;48.988;2.408;2023-05-09T06:53:52;100719.63;;;17.34;64.78
21290;BME280;10804;48.988;2.408;2023-05-09T06:56:19;100725.72;;;17.34;64.74
21290;BME280;10804;48.988;2.408;2023-05-09T06:58:48;100720.56;;;17.33;64.71
21290;BME280;10804;48.988;2.408;2023-05-09T07:01:15;100711.84;;;17.31;64.67
21290;BME280;10804;48.988;2.408;2023-05-09T07:03:43;100711.84;;;17.31;64.88
21290;BME280;10804;48.988;2.408;2023-05-09T07:06:12;100699.59;;;17.30;64.81
21290;BME280;10804;48.988;2.408;2023-05-09T07:08:40;100701.47;;;17.28;64.88
21290;BME280;10804;48.988;2.408;2023-05-09T07:11:08;100696.97;;;17.30;64.86
21290;BME280;10804;48.988;2.408;2023-05-09T07:13:35;100691.78;;;17.28;64.75
21290;BME280;10804;48.988;2.408;2023-05-09T07:16:03;100689.31;;;17.25;64.75
21290;BME280;10804;48.988;2.408;2023-05-09T07:18:30;100681.47;;;17.24;64.74
21290;BME280;10804;48.988;2.408;2023-05-09T07:20:57;100684.91;;;17.26;64.81
21290;BME280;10804;48.988;2.408;2023-05-09T07:23:25;100681.41;;;17.25;64.88
21290;BME280;10804;48.988;2.408;2023-05-09T07:25:57;100670.94;;;17.24;64.89
21290;BME280;10804;48.988;2.408;2023-05-09T07:28:24;100673.56;;;17.24;64.85
21290;BME280;10804;48.988;2.408;2023-05-09T07:30:54;100677.13;;;17.23;64.77
21290;BME280;10804;48.988;2.408;2023-05-09T07:33:21;100669.22;;;17.23;64.81
21290;BME280;10804;48.988;2.408;2023-05-09T07:35:48;100672.81;;;17.22;64.89
21290;BME280;10804;48.988;2.408;2023-05-09T07:38:17;100667.53;;;17.22;64.91
21290;BME280;10804;48.988;2.408;2023-05-09T07:40:45;100669.34;;;17.21;64.84
21290;BME280;10804;48.988;2.408;2023-05-09T07:43:13;100672.03;;;17.20;64.80
21290;BME280;10804;48.988;2.408;2023-05-09T07:45:41;100659.81;;;17.19;64.95
21290;BME280;10804;48.988;2.408;2023-05-09T07:48:08;100665.06;;;17.19;64.92
21290;BME280;10804;48.988;2.408;2023-05-09T07:50:35;100656.31;;;17.18;64.88
21290;BME280;10804;48.988;2.408;2023-05-09T07:53:03;100654.59;;;17.17;64.65
21290;BME280;10804;48.988;2.408;2023-05-09T07:55:30;100654.69;;;17.16;64.87
21290;BME280;10804;48.988;2.408;2023-05-09T07:57:57;100652.03;;;17.16;64.88
21290;BME280;10804;48.988;2.408;2023-05-09T08:00:26;100654.69;;;17.16;64.88
21290;BME280;10804;48.988;2.408;2023-05-09T08:02:53;100650.34;;;17.15;64.87
21290;BME280;10804;48.988;2.408;2023-05-09T08:05:21;100652.91;;;17.16;64.97
21290;BME280;10804;48.988;2.408;2023-05-09T08:07:48;100638.09;;;17.14;64.76
21290;BME280;10804;48.988;2.408;2023-05-09T08:10:15;100638.09;;;17.14;64.79
21290;BME280;10804;48.988;2.408;2023-05-09T08:12:43;100646.00;;;17.14;64.94
21290;BME280;10804;48.988;2.408;2023-05-09T08:15:10;100636.41;;;17.13;64.79
21290;BME280;10804;48.988;2.408;2023-05-09T08:17:39;100636.41;;;17.13;64.91
21290;BME280;10804;48.988;2.408;2023-05-09T08:20:06;100627.75;;;17.11;64.95
21290;BME280;10804;48.988;2.408;2023-05-09T08:22:37;100627.75;;;17.11;64.96
21290;BME280;10804;48.988;2.408;2023-05-09T08:25:05;100626.03;;;17.10;64.97
21290;BME280;10804;48.988;2.408;2023-05-09T08:27:33;100624.25;;;17.10;64.89
21290;BME280;10804;48.988;2.408;2023-05-09T08:30:00;100615.50;;;17.10;64.81
21290;BME280;10804;48.988;2.408;2023-05-09T08:32:29;100617.28;;;17.09;64.91
21290;BME280;10804;48.988;2.408;2023-05-09T08:34:58;100610.22;;;17.10;64.90
21290;BME280;10804;48.988;2.408;2023-05-09T08:37:25;100608.50;;;17.09;64.83
21290;BME280;10804;48.988;2.408;2023-05-09T08:39:53;100607.59;;;17.10;64.86
21290;BME280;10804;48.988;2.408;2023-05-09T08:42:21;100605.97;;;17.07;64.75
21290;BME280;10804;48.988;2.408;2023-05-09T08:44:49;100596.25;;;17.08;64.83
21290;BME280;10804;48.988;2.408;2023-05-09T08:47:16;100592.00;;;17.05;64.91
21290;BME280;10804;48.988;2.408;2023-05-09T08:49:46;100596.25;;;17.08;64.88
21290;BME280;10804;48.988;2.408;2023-05-09T08:52:15;100591.84;;;17.08;64.99
21290;BME280;10804;48.988;2.408;2023-05-09T08:54:43;100593.63;;;17.08;64.85
21290;BME280;10804;48.988;2.408;2023-05-09T08:57:10;100584.03;;;17.07;64.86
21290;BME280;10804;48.988;2.408;2023-05-09T08:59:39;100579.63;;;17.07;64.85
21290;BME280;10804;48.988;2.408;2023-05-09T09:02:07;100579.63;;;17.07;64.77
21290;BME280;10804;48.988;2.408;2023-05-09T09:04:38;100576.97;;;17.07;64.90
21290;BME280;10804;48.988;2.408;2023-05-09T09:07:07;100579.63;;;17.07;64.92
21290;BME280;10804;48.988;2.408;2023-05-09T09:09:36;100564.81;;;17.05;64.72
21290;BME280;10804;48.988;2.408;2023-05-09T09:12:06;100560.38;;;17.05;64.84
21290;BME280;10804;48.988;2.408;2023-05-09T09:14:37;100568.22;;;17.07;64.77
21290;BME280;10804;48.988;2.408;2023-05-09T09:17:07;100568.22;;;17.07;64.77
21290;BME280;10804;48.988;2.408;2023-05-09T09:19:36;100569.91;;;17.08;64.75
21290;BME280;10804;48.988;2.408;2023-05-09T09:22:07;100562.13;;;17.06;64.73
21290;BME280;10804;48.988;2.408;2023-05-09T09:24:39;100563.03;;;17.05;64.72
21290;BME280;10804;48.988;2.408;2023-05-09T09:27:06;100570.84;;;17.07;64.79
21290;BME280;10804;48.988;2.408;2023-05-09T09:29:34;100565.59;;;17.07;64.69
21290;BME280;10804;48.988;2.408;2023-05-09T09:32:02;100560.38;;;17.05;64.64
21290;BME280;10804;48.988;2.408;2023-05-09T09:34:29;100564.75;;;17.06;64.72
21290;BME280;10804;48.988;2.408;2023-05-09T09:36:57;100565.66;;;17.05;64.76
21290;BME280;10804;48.988;2.408;2023-05-09T09:39:24;100559.56;;;17.05;64.66
21290;BME280;10804;48.988;2.408;2023-05-09T09:41:53;100554.28;;;17.05;64.78
21290;BME280;10804;48.988;2.408;2023-05-09T09:44:21;100554.34;;;17.03;64.87
21290;BME280;10804;48.988;2.408;2023-05-09T09:46:50;100555.22;;;17.04;64.63
21290;BME280;10804;48.988;2.408;2023-05-09T09:49:19;100555.13;;;17.05;64.74
21290;BME280;10804;48.988;2.408;2023-05-09T09:51:50;100549.00;;;17.05;64.74
21290;BME280;10804;48.988;2.408;2023-05-09T09:54:18;100551.66;;;17.05;64.85
21290;BME280;10804;48.988;2.408;2023-05-09T09:56:47;100555.13;;;17.05;64.69
21290;BME280;10804;48.988;2.408;2023-05-09T09:59:17;100546.38;;;17.05;64.68
21290;BME280;10804;48.988;2.408;2023-05-09T10:01:55;100536.94;;;17.01;64.74
21290;BME280;10804;48.988;2.408;2023-05-09T10:04:24;100545.44;;;17.06;64.64
21290;BME280;10804;48.988;2.408;2023-05-09T10:06:52;100548.06;;;17.06;64.71
21290;BME280;10804;48.988;2.408;2023-05-09T10:09:20;100542.06;;;17.04;64.71
21290;BME280;10804;48.988;2.408;2023-05-09T10:11:50;100542.72;;;17.07;64.78
21290;BME280;10804;48.988;2.408;2023-05-09T10:14:20;100531.50;;;17.04;64.68
21290;BME280;10804;48.988;2.408;2023-05-09T10:16:50;100523.50;;;17.05;64.77
21290;BME280;10804;48.988;2.408;2023-05-09T10:19:19;100528.69;;;17.07;64.71
21290;BME280;10804;48.988;2.408;2023-05-09T10:21:50;100515.59;;;17.05;64.64
21290;BME280;10804;48.988;2.408;2023-05-09T10:24:28;100519.09;;;17.06;64.63
21290;BME280;10804;48.988;2.408;2023-05-09T10:27:02;100514.75;;;17.05;64.65
21290;BME280;10804;48.988;2.408;2023-05-09T10:29:34;100506.84;;;17.05;64.57
21290;BME280;10804;48.988;2.408;2023-05-09T10:32:10;100512.03;;;17.06;64.57
21290;BME280;10804;48.988;2.408;2023-05-09T10:34:43;100507.69;;;17.05;64.43
21290;BME280;10804;48.988;2.408;2023-05-09T10:37:14;100512.94;;;17.05;64.24
21290;BME280;10804;48.988;2.408;2023-05-09T10:39:43;100512.13;;;17.05;64.55
21290;BME280;10804;48.988;2.408;2023-05-09T10:42:12;100502.53;;;17.04;64.59
21290;BME280;10804;48.988;2.408;2023-05-09T10:44:41;100496.31;;;17.05;64.53
21290;BME280;10804;48.988;2.408;2023-05-09T10:47:09;100499.03;;;17.03;64.66
21290;BME280;10804;48.988;2.408;2023-05-09T10:49:38;100492.81;;;17.04;64.58
21290;BME280;10804;48.988;2.408;2023-05-09T10:52:06;100493.69;;;17.05;64.55
21290;BME280;10804;48.988;2.408;2023-05-09T10:54:35;100493.75;;;17.03;64.53
21290;BME280;10804;48.988;2.408;2023-05-09T10:57:04;100507.78;;;17.04;64.58
21290;BME280;10804;48.988;2.408;2023-05-09T10:59:36;100499.03;;;17.03;64.49
21290;BME280;10804;48.988;2.408;2023-05-09T11:02:10;100496.31;;;17.05;64.59
21290;BME280;10804;48.988;2.408;2023-05-09T11:04:39;100482.38;;;17.03;64.52
21290;BME280;10804;48.988;2.408;2023-05-09T11:07:22;100484.91;;;17.04;64.52
21290;BME280;10804;48.988;2.408;2023-05-09T11:09:50;100484.91;;;17.04;64.57
21290;BME280;10804;48.988;2.408;2023-05-09T11:12:19;100478.81;;;17.04;64.58
21290;BME280;10804;48.988;2.408;2023-05-09T11:14:48;100469.97;;;17.05;64.59
21290;BME280;10804;48.988;2.408;2023-05-09T11:17:28;100470.91;;;17.04;64.48
21290;BME280;10804;48.988;2.408;2023-05-09T11:19:59;100464.69;;;17.05;64.51
21290;BME280;10804;48.988;2.408;2023-05-09T11:22:27;100462.88;;;17.05;64.45
21290;BME280;10804;48.988;2.408;2023-05-09T11:25:01;100468.09;;;17.07;64.60
21290;BME280;10804;48.988;2.408;2023-05-09T11:27:36;100465.44;;;17.07;64.48
21290;BME280;10804;48.988;2.408;2023-05-09T11:30:06;100461.97;;;17.06;64.54
21290;BME280;10804;48.988;2.408;2023-05-09T11:32:42;100467.16;;;17.08;64.57
21290;BME280;10804;48.988;2.408;2023-05-09T11:35:11;100460.09;;;17.08;64.47
21290;BME280;10804;48.988;2.408;2023-05-09T11:37:49;100461.03;;;17.07;64.45
21290;BME280;10804;48.988;2.408;2023-05-09T11:40:18;100457.53;;;17.07;64.46
21290;BME280;10804;48.988;2.408;2023-05-09T11:42:47;100458.31;;;17.09;64.50
21290;BME280;10804;48.988;2.408;2023-05-09T11:45:15;100460.94;;;17.09;64.38
21290;BME280;10804;48.988;2.408;2023-05-09T11:47:44;100462.66;;;17.10;64.34
21290;BME280;10804;48.988;2.408;2023-05-09T11:50:13;100452.13;;;17.10;64.38
21290;BME280;10804;48.988;2.408;2023-05-09T11:52:41;100447.69;;;17.10;64.35
21290;BME280;10804;48.988;2.408;2023-05-09T11:55:09;100451.06;;;17.12;64.40
21290;BME280;10804;48.988;2.408;2023-05-09T11:57:39;100451.94;;;17.13;64.42
21290;BME280;10804;48.988;2.408;2023-05-09T12:00:07;100445.81;;;17.12;64.37
21290;BME280;10804;48.988;2.408;2023-05-09T12:02:35;100451.94;;;17.13;64.36
21290;BME280;10804;48.988;2.408;2023-05-09T12:05:09;100441.38;;;17.13;64.35
21290;BME280;10804;48.988;2.408;2023-05-09T12:07:37;100449.22;;;17.14;64.30
21290;BME280;10804;48.988;2.408;2023-05-09T12:10:06;100444.78;;;17.15;64.22
21290;BME280;10804;48.988;2.408;2023-05-09T12:12:34;100438.56;;;17.16;64.33
21290;BME280;10804;48.988;2.408;2023-05-09T12:15:02;100437.63;;;17.17;64.37
21290;BME280;10804;48.988;2.408;2023-05-09T12:17:30;100440.25;;;17.17;64.33
21290;BME280;10804;48.988;2.408;2023-05-09T12:19:58;100438.41;;;17.19;64.37
21290;BME280;10804;48.988;2.408;2023-05-09T12:22:28;100437.47;;;17.20;64.24
21290;BME280;10804;48.988;2.408;2023-05-09T12:24:56;100440.09;;;17.20;64.27
21290;BME280;10804;48.988;2.408;2023-05-09T12:27:24;100436.53;;;17.21;64.26
21290;BME280;10804;48.988;2.408;2023-05-09T12:29:54;100444.38;;;17.22;64.15
21290;BME280;10804;48.988;2.408;2023-05-09T12:32:22;100453.09;;;17.23;64.34
21290;BME280;10804;48.988;2.408;2023-05-09T12:34:49;100438.97;;;17.24;64.22
21290;BME280;10804;48.988;2.408;2023-05-09T12:37:18;100449.53;;;17.24;64.34
21290;BME280;10804;48.988;2.408;2023-05-09T12:40:00;100445.03;;;17.26;64.14
21290;BME280;10804;48.988;2.408;2023-05-09T12:42:29;100439.78;;;17.26;64.14
21290;BME280;10804;48.988;2.408;2023-05-09T12:44:57;100446.72;;;17.27;64.22
21290;BME280;10804;48.988;2.408;2023-05-09T12:47:25;100444.19;;;17.25;64.13
21290;BME280;10804;48.988;2.408;2023-05-09T12:49:56;100433.56;;;17.27;64.17
21290;BME280;10804;48.988;2.408;2023-05-09T12:52:24;100435.25;;;17.28;64.18
21290;BME280;10804;48.988;2.408;2023-05-09T12:54:52;100436.94;;;17.29;64.16
21290;BME280;10804;48.988;2.408;2023-05-09T12:57:22;100437.81;;;17.29;64.17
21290;BME280;10804;48.988;2.408;2023-05-09T12:59:49;100446.53;;;17.30;64.27